createdAt,value
2022-12-18T00:01:50.780Z,2.22
2022-12-18T00:04:24.410Z,2.19
2022-12-18T00:06:51.793Z,2.24
2022-12-18T00:09:21.411Z,2.29
2022-12-18T00:11:56.071Z,2.33
2022-12-18T00:14:23.376Z,2.35
2022-12-18T00:16:52.781Z,2.31
2022-12-18T00:19:20.008Z,2.25
2022-12-18T00:21:49.308Z,2.18
2022-12-18T00:24:16.498Z,2.17
2022-12-18T00:26:46.372Z,2.19
2022-12-18T00:29:15.262Z,2.22
2022-12-18T00:31:43.467Z,2.14
2022-12-18T00:34:14.155Z,2.03
2022-12-18T00:36:42.247Z,2.00
2022-12-18T00:39:11.044Z,1.96
2022-12-18T00:41:56.246Z,1.95
2022-12-18T00:44:24.932Z,1.90
2022-12-18T00:46:51.876Z,1.91
2022-12-18T00:49:20.561Z,1.93
2022-12-18T00:51:48.198Z,1.97
2022-12-18T00:54:18.514Z,1.97
2022-12-18T00:56:51.237Z,1.90
2022-12-18T00:59:20.883Z,1.96
2022-12-18T01:01:49.354Z,1.98
2022-12-18T01:04:16.730Z,2.00
2022-12-18T01:06:43.777Z,2.00
2022-12-18T01:09:11.939Z,2.01
2022-12-18T01:11:40.826Z,1.99
2022-12-18T01:14:07.967Z,1.96
2022-12-18T01:16:35.211Z,1.95
2022-12-18T01:19:03.796Z,1.93
2022-12-18T01:21:32.382Z,1.93
2022-12-18T01:24:05.849Z,1.92
2022-12-18T01:26:35.066Z,1.92
2022-12-18T01:29:04.748Z,1.91
2022-12-18T01:31:33.349Z,1.90
2022-12-18T01:34:03.406Z,1.90
2022-12-18T01:36:32.815Z,1.77
2022-12-18T01:39:09.485Z,1.80
2022-12-18T01:41:57.606Z,1.86
2022-12-18T01:44:54.266Z,1.84
2022-12-18T01:47:26.958Z,1.74
2022-12-18T01:49:59.722Z,1.67
2022-12-18T01:52:29.238Z,1.67
2022-12-18T01:54:57.242Z,1.62
2022-12-18T01:57:28.077Z,1.57
2022-12-18T02:00:02.527Z,1.51
2022-12-18T02:02:30.488Z,1.41
2022-12-18T02:05:05.349Z,1.35
2022-12-18T02:07:43.699Z,1.41
2022-12-18T02:10:18.524Z,1.45
2022-12-18T02:12:57.495Z,1.42
2022-12-18T02:15:33.188Z,1.38
2022-12-18T02:18:06.588Z,1.29
2022-12-18T02:20:46.736Z,1.17
2022-12-18T02:23:25.436Z,1.27
2022-12-18T02:26:06.002Z,1.25
2022-12-18T02:28:38.973Z,1.27
2022-12-18T02:31:13.378Z,1.19
2022-12-18T02:33:51.365Z,1.24
2022-12-18T02:36:21.017Z,1.27
2022-12-18T02:38:48.855Z,1.21
2022-12-18T02:41:18.904Z,1.18
2022-12-18T02:43:55.961Z,1.22
2022-12-18T02:46:35.127Z,1.19
2022-12-18T02:49:13.801Z,1.08
2022-12-18T02:51:51.676Z,1.09
2022-12-18T02:54:33.366Z,1.02
2022-12-18T02:57:11.528Z,1.08
2022-12-18T02:59:43.099Z,1.10
2022-12-18T03:02:20.670Z,1.11
2022-12-18T03:04:55.652Z,1.05
2022-12-18T03:07:39.023Z,1.07
2022-12-18T03:10:14.662Z,1.05
2022-12-18T03:12:48.658Z,1.08
2022-12-18T03:15:21.981Z,1.08
2022-12-18T03:17:53.615Z,1.01
2022-12-18T03:20:26.261Z,0.97
2022-12-18T03:23:00.840Z,0.95
2022-12-18T03:25:29.111Z,0.91
2022-12-18T03:28:03.211Z,0.93
2022-12-18T03:30:34.432Z,0.99
2022-12-18T03:33:09.996Z,0.99
2022-12-18T03:35:42.750Z,1.05
2022-12-18T03:38:12.169Z,1.03
2022-12-18T03:40:49.428Z,1.03
2022-12-18T03:43:24.952Z,1.03
2022-12-18T03:45:57.948Z,1.06
2022-12-18T03:48:31.236Z,0.96
2022-12-18T03:51:06.097Z,0.97
2022-12-18T03:53:39.948Z,1.08
2022-12-18T03:56:09.562Z,0.99
2022-12-18T03:58:43.476Z,1.02
2022-12-18T04:01:15.049Z,1.06
2022-12-18T04:03:44.989Z,1.07
2022-12-18T04:06:15.437Z,1.11
2022-12-18T04:08:48.344Z,1.16
2022-12-18T04:11:21.603Z,1.14
2022-12-18T04:13:59.048Z,1.10
2022-12-18T04:16:26.440Z,1.13
2022-12-18T04:18:54.882Z,1.22
2022-12-18T04:21:22.388Z,1.22
2022-12-18T04:23:49.699Z,1.12
2022-12-18T04:26:18.592Z,1.05
2022-12-18T04:28:52.249Z,0.95
2022-12-18T04:31:21.957Z,0.95
2022-12-18T04:33:52.155Z,1.04
2022-12-18T04:36:22.079Z,1.14
2022-12-18T04:38:49.288Z,1.22
2022-12-18T04:41:17.716Z,1.27
2022-12-18T04:43:46.741Z,1.29
2022-12-18T04:46:13.929Z,1.23
2022-12-18T04:48:42.612Z,1.21
2022-12-18T04:51:13.880Z,1.26
2022-12-18T04:53:41.487Z,1.32
2022-12-18T04:56:10.724Z,1.33
2022-12-18T04:58:40.423Z,1.35
2022-12-18T05:01:09.723Z,1.39
2022-12-18T05:03:39.646Z,1.43
2022-12-18T05:06:10.411Z,1.54
2022-12-18T05:08:45.985Z,1.55
2022-12-18T05:11:16.670Z,1.58
2022-12-18T05:13:46.553Z,1.59
2022-12-18T05:16:14.101Z,1.62
2022-12-18T05:18:41.455Z,1.68
2022-12-18T05:21:12.774Z,1.68
2022-12-18T05:23:43.437Z,1.71
2022-12-18T05:26:20.444Z,1.76
2022-12-18T05:28:47.970Z,1.68
2022-12-18T05:31:16.889Z,1.77
2022-12-18T05:33:45.641Z,1.77
2022-12-18T05:36:14.738Z,1.75
2022-12-18T05:38:44.910Z,1.75
2022-12-18T05:41:14.872Z,1.74
2022-12-18T05:43:48.073Z,1.73
2022-12-18T05:46:18.514Z,1.72
2022-12-18T05:48:49.226Z,1.76
2022-12-18T05:51:26.609Z,1.81
2022-12-18T05:53:54.325Z,1.73
2022-12-18T05:56:23.415Z,1.80
2022-12-18T05:58:53.801Z,1.69
2022-12-18T06:01:24.218Z,1.86
2022-12-18T06:03:51.684Z,1.85
2022-12-18T06:06:20.515Z,1.86
2022-12-18T06:08:50.286Z,1.81
2022-12-18T06:11:21.474Z,1.84
2022-12-18T06:13:58.261Z,1.89
2022-12-18T06:16:27.088Z,1.84
2022-12-18T06:18:54.432Z,1.84
2022-12-18T06:21:21.322Z,1.73
2022-12-18T06:23:49.868Z,1.72
2022-12-18T06:26:16.975Z,1.69
2022-12-18T06:28:44.215Z,1.62
2022-12-18T06:31:11.348Z,1.65
2022-12-18T06:33:39.713Z,1.66
2022-12-18T06:36:08.900Z,1.67
2022-12-18T06:38:38.121Z,1.67
2022-12-18T06:41:08.840Z,1.73
2022-12-18T06:43:36.345Z,1.82
2022-12-18T06:46:04.766Z,1.91
2022-12-18T06:48:33.138Z,1.95
2022-12-18T06:51:02.294Z,2.01
2022-12-18T06:53:30.483Z,1.98
2022-12-18T06:56:05.181Z,1.95
2022-12-18T06:58:37.822Z,2.01
2022-12-18T07:01:07.895Z,2.02
2022-12-18T07:03:38.945Z,2.16
2022-12-18T07:06:13.981Z,2.19
2022-12-18T07:08:46.196Z,2.23
2022-12-18T07:11:16.702Z,2.31
2022-12-18T07:13:46.226Z,2.32
2022-12-18T07:16:24.407Z,2.34
2022-12-18T07:18:56.494Z,2.36
2022-12-18T07:21:25.147Z,2.32
2022-12-18T07:23:52.573Z,2.38
2022-12-18T07:26:22.053Z,2.38
2022-12-18T07:29:05.260Z,2.35
2022-12-18T07:31:36.596Z,2.38
2022-12-18T07:34:04.061Z,2.41
2022-12-18T07:36:33.068Z,2.52
2022-12-18T07:39:00.023Z,2.53
2022-12-18T07:41:27.272Z,2.44
2022-12-18T07:43:56.284Z,2.44
2022-12-18T07:46:27.949Z,2.15
2022-12-18T07:48:54.821Z,2.21
2022-12-18T07:51:26.488Z,2.34
2022-12-18T07:53:56.508Z,2.22
2022-12-18T07:56:42.981Z,2.19
2022-12-18T07:59:12.930Z,2.28
2022-12-18T08:01:41.660Z,2.39
2022-12-18T08:04:10.058Z,2.46
2022-12-18T08:06:37.263Z,2.62
2022-12-18T08:09:04.221Z,2.60
2022-12-18T08:11:31.488Z,2.64
2022-12-18T08:14:01.522Z,2.67
2022-12-18T08:16:28.761Z,2.78
2022-12-18T08:18:57.610Z,2.71
2022-12-18T08:21:26.195Z,2.66
2022-12-18T08:23:57.008Z,2.80
2022-12-18T08:26:25.910Z,2.99
2022-12-18T08:28:57.580Z,3.04
2022-12-18T08:31:34.438Z,3.08
2022-12-18T08:34:03.171Z,3.09
2022-12-18T08:36:33.388Z,3.16
2022-12-18T08:39:00.698Z,3.22
2022-12-18T08:41:30.680Z,3.15
2022-12-18T08:44:16.895Z,3.19
2022-12-18T08:46:45.631Z,3.24
2022-12-18T08:49:14.457Z,3.28
2022-12-18T08:51:41.386Z,3.29
2022-12-18T08:54:10.296Z,3.35
2022-12-18T08:56:44.204Z,3.43
2022-12-18T08:59:17.294Z,3.46
2022-12-18T09:01:47.986Z,3.43
2022-12-18T09:04:16.456Z,3.46
2022-12-18T09:06:49.311Z,3.40
2022-12-18T09:09:16.768Z,3.57
2022-12-18T09:11:45.331Z,3.59
2022-12-18T09:14:12.781Z,3.64
2022-12-18T09:16:39.729Z,3.77
2022-12-18T09:19:07.016Z,3.69
2022-12-18T09:21:37.156Z,3.66
2022-12-18T09:24:08.877Z,3.65
2022-12-18T09:26:36.724Z,3.64
2022-12-18T09:29:04.058Z,3.54
2022-12-18T09:31:34.240Z,3.58
2022-12-18T09:34:02.200Z,3.62
2022-12-18T09:36:29.236Z,3.57
2022-12-18T09:38:57.919Z,3.65
2022-12-18T09:41:40.188Z,3.61
2022-12-18T09:44:20.994Z,3.70
2022-12-18T09:47:00.689Z,3.78
2022-12-18T09:49:35.512Z,3.80
2022-12-18T09:52:12.421Z,3.92
2022-12-18T09:54:47.335Z,4.09
2022-12-18T09:57:22.723Z,3.94
2022-12-18T09:59:55.982Z,3.92
2022-12-18T10:02:26.050Z,3.84
2022-12-18T10:05:06.458Z,3.86
2022-12-18T10:07:55.266Z,3.90
2022-12-18T10:10:39.020Z,4.00
2022-12-18T10:13:16.564Z,4.03
2022-12-18T10:15:59.453Z,3.88
2022-12-18T10:18:42.048Z,3.95
2022-12-18T10:21:18.720Z,4.08
2022-12-18T10:23:55.377Z,4.11
2022-12-18T10:26:25.206Z,4.10
2022-12-18T10:28:53.131Z,3.91
2022-12-18T10:31:24.736Z,3.86
2022-12-18T10:33:57.105Z,3.91
2022-12-18T10:36:25.512Z,3.99
2022-12-18T10:38:52.757Z,3.93
2022-12-18T10:41:29.565Z,3.66
2022-12-18T10:44:18.378Z,3.31
2022-12-18T10:46:47.770Z,3.39
2022-12-18T10:49:22.507Z,3.24
2022-12-18T10:52:04.589Z,3.09
2022-12-18T10:54:33.616Z,3.16
2022-12-18T10:57:35.206Z,3.19
2022-12-18T11:00:22.340Z,3.40
2022-12-18T11:02:52.512Z,3.53
2022-12-18T11:05:28.636Z,3.62
2022-12-18T11:07:59.541Z,3.74
2022-12-18T11:10:31.675Z,3.79
2022-12-18T11:13:13.662Z,3.85
2022-12-18T11:15:42.568Z,3.82
2022-12-18T11:18:19.990Z,3.69
2022-12-18T11:21:01.397Z,3.57
2022-12-18T11:23:29.039Z,3.57
2022-12-18T11:25:59.139Z,3.53
2022-12-18T11:28:35.910Z,3.72
2022-12-18T11:31:23.055Z,4.00
2022-12-18T11:36:49.580Z,3.93
2022-12-18T11:39:24.983Z,3.93
2022-12-18T11:42:12.775Z,3.86
2022-12-18T11:44:47.684Z,3.68
2022-12-18T11:47:26.755Z,3.67
2022-12-18T11:49:58.896Z,3.67
2022-12-18T11:52:29.675Z,3.73
2022-12-18T11:55:02.465Z,3.71
2022-12-18T11:57:42.334Z,3.71
2022-12-18T12:00:18.629Z,3.83
2022-12-18T12:03:19.953Z,3.90
2022-12-18T12:06:04.439Z,3.94
2022-12-18T12:09:04.920Z,4.11
2022-12-18T12:11:57.036Z,4.21
2022-12-18T12:14:37.896Z,4.27
2022-12-18T12:17:17.838Z,4.17
2022-12-18T12:19:53.266Z,4.17
2022-12-18T12:22:31.055Z,4.27
2022-12-18T12:25:15.620Z,4.41
2022-12-18T12:27:56.218Z,4.47
2022-12-18T12:30:32.124Z,4.15
2022-12-18T12:33:24.208Z,4.14
2022-12-18T12:36:00.186Z,4.09
2022-12-18T12:38:38.165Z,4.23
2022-12-18T12:41:30.739Z,4.35
2022-12-18T12:44:01.252Z,4.29
2022-12-18T12:46:30.616Z,4.16
2022-12-18T12:49:05.328Z,4.17
2022-12-18T12:51:35.605Z,4.15
2022-12-18T12:54:07.200Z,4.25
2022-12-18T12:56:46.727Z,4.29
2022-12-18T12:59:26.885Z,4.25
2022-12-18T13:01:59.278Z,4.22
2022-12-18T13:04:52.681Z,4.00
2022-12-18T13:07:27.967Z,4.25
2022-12-18T13:10:28.709Z,4.21
2022-12-18T13:12:57.371Z,4.34
2022-12-18T13:15:39.755Z,4.26
2022-12-18T13:18:20.979Z,4.23
2022-12-18T13:20:55.168Z,4.35
2022-12-18T13:23:43.711Z,4.35
2022-12-18T13:26:33.971Z,4.30
2022-12-18T13:29:05.049Z,4.36
2022-12-18T13:32:08.823Z,4.38
2022-12-18T13:34:37.388Z,4.29
2022-12-18T13:37:44.112Z,4.12
2022-12-18T13:40:56.478Z,4.14
2022-12-18T13:43:41.356Z,4.11
2022-12-18T13:46:24.056Z,4.08
2022-12-18T13:48:56.076Z,4.12
2022-12-18T13:51:23.942Z,4.26
2022-12-18T13:53:56.225Z,4.44
2022-12-18T13:56:28.579Z,4.51
2022-12-18T13:59:23.067Z,4.53
2022-12-18T14:01:56.290Z,4.58
2022-12-18T14:04:30.688Z,4.66
2022-12-18T14:07:03.859Z,4.64
2022-12-18T14:09:37.231Z,4.50
2022-12-18T14:12:25.785Z,4.33
2022-12-18T14:14:55.146Z,4.21
2022-12-18T14:17:22.176Z,4.04
2022-12-18T14:19:51.695Z,3.90
2022-12-18T14:22:21.001Z,3.78
2022-12-18T14:25:09.591Z,3.64
2022-12-18T14:27:39.032Z,3.56
2022-12-18T14:30:24.952Z,3.67
2022-12-18T14:33:01.164Z,3.72
2022-12-18T14:35:28.556Z,3.63
2022-12-18T14:38:20.533Z,3.71
2022-12-18T14:40:58.938Z,3.73
2022-12-18T14:43:27.108Z,3.75
2022-12-18T14:46:00.808Z,3.76
2022-12-18T14:48:37.442Z,3.72
2022-12-18T14:51:07.451Z,3.71
2022-12-18T14:53:40.509Z,3.66
2022-12-18T14:56:19.748Z,3.68
2022-12-18T14:58:49.701Z,3.73
2022-12-18T15:01:28.546Z,3.72
2022-12-18T15:03:57.313Z,3.66
2022-12-18T15:06:33.630Z,3.72
2022-12-18T15:09:22.809Z,3.64
2022-12-18T15:11:57.601Z,3.72
2022-12-18T15:14:35.792Z,3.75
2022-12-18T15:17:06.971Z,3.81
2022-12-18T15:19:39.535Z,3.82
2022-12-18T15:22:21.426Z,3.80
2022-12-18T15:24:52.579Z,3.80
2022-12-18T15:27:25.508Z,3.66
2022-12-18T15:30:19.491Z,3.82
2022-12-18T15:32:49.873Z,3.75
2022-12-18T15:35:20.376Z,3.67
2022-12-18T15:37:47.933Z,3.58
2022-12-18T15:40:16.182Z,3.53
2022-12-18T15:43:05.627Z,3.46
2022-12-18T15:45:37.095Z,3.38
2022-12-18T15:48:15.687Z,3.34
2022-12-18T15:50:54.612Z,3.20
2022-12-18T15:53:26.693Z,3.13
2022-12-18T15:56:18.622Z,3.04
2022-12-18T15:58:48.505Z,2.99
2022-12-18T16:01:27.239Z,2.95
2022-12-18T16:04:00.181Z,2.91
2022-12-18T16:06:30.492Z,2.82
2022-12-18T16:09:03.771Z,2.71
2022-12-18T16:11:44.002Z,2.63
2022-12-18T16:14:19.340Z,2.61
2022-12-18T16:16:47.917Z,2.61
2022-12-18T16:19:22.126Z,2.58
2022-12-18T16:21:56.907Z,2.48
2022-12-18T16:24:26.828Z,2.51
2022-12-18T16:26:54.585Z,2.46
2022-12-18T16:29:30.110Z,2.34
2022-12-18T16:31:58.119Z,2.36
2022-12-18T16:34:32.139Z,2.33
2022-12-18T16:37:05.775Z,2.31
2022-12-18T16:39:37.416Z,2.21
2022-12-18T16:42:11.361Z,2.09
2022-12-18T16:44:43.167Z,2.05
2022-12-18T16:47:14.893Z,2.05
2022-12-18T16:49:43.786Z,1.83
2022-12-18T16:52:10.711Z,1.88
2022-12-18T16:54:40.542Z,1.83
2022-12-18T16:57:07.657Z,1.77
2022-12-18T16:59:34.753Z,1.77
2022-12-18T17:02:05.711Z,1.77
2022-12-18T17:04:34.199Z,1.72
2022-12-18T17:07:01.857Z,1.73
2022-12-18T17:09:29.749Z,1.70
2022-12-18T17:11:56.737Z,1.63
2022-12-18T17:14:25.703Z,1.55
2022-12-18T17:17:19.704Z,1.53
2022-12-18T17:19:42.202Z,1.56
2022-12-18T17:22:09.550Z,1.50
2022-12-18T17:24:37.440Z,1.50
2022-12-18T17:27:04.951Z,1.52
2022-12-18T17:29:36.411Z,1.46
2022-12-18T17:32:05.845Z,1.45
2022-12-18T17:34:44.217Z,1.46
2022-12-18T17:37:14.406Z,1.37
2022-12-18T17:39:46.451Z,1.45
2022-12-18T17:42:15.220Z,1.41
2022-12-18T17:44:43.437Z,1.33
2022-12-18T17:47:12.156Z,1.26
2022-12-18T17:49:39.447Z,1.21
2022-12-18T17:52:10.937Z,1.09
2022-12-18T17:57:28.988Z,1.08
2022-12-18T17:59:56.303Z,1.08
2022-12-18T18:02:23.289Z,1.03
2022-12-18T18:04:52.995Z,1.06
2022-12-18T18:07:23.969Z,1.09
2022-12-18T18:09:55.392Z,1.06
2022-12-18T18:12:40.906Z,1.06
2022-12-18T18:15:10.333Z,1.08
2022-12-18T18:17:37.909Z,1.10
2022-12-18T18:20:06.235Z,1.15
2022-12-18T18:22:34.757Z,1.13
2022-12-18T18:25:03.563Z,1.10
2022-12-18T18:27:36.895Z,1.06
2022-12-18T18:30:07.790Z,0.97
2022-12-18T18:32:39.718Z,1.09
2022-12-18T18:35:12.550Z,1.16
2022-12-18T18:37:53.113Z,1.19
2022-12-18T18:40:21.461Z,1.10
2022-12-18T18:42:51.593Z,1.06
2022-12-18T18:45:23.666Z,1.01
2022-12-18T18:47:50.589Z,0.96
2022-12-18T18:50:18.680Z,0.99
2022-12-18T18:52:53.165Z,0.89
2022-12-18T18:55:25.440Z,1.03
2022-12-18T18:57:52.845Z,1.11
2022-12-18T19:00:22.071Z,1.16
2022-12-18T19:02:57.697Z,1.15
2022-12-18T19:05:31.430Z,1.14
2022-12-18T19:07:59.744Z,1.11
2022-12-18T19:10:26.822Z,1.11
2022-12-18T19:13:15.711Z,1.02
2022-12-18T19:15:47.155Z,0.86
2022-12-18T19:18:17.432Z,0.85
2022-12-18T19:20:44.884Z,0.80
2022-12-18T19:23:22.439Z,0.75
2022-12-18T19:25:59.517Z,0.85
2022-12-18T19:28:40.839Z,0.85
2022-12-18T19:31:10.812Z,0.90
2022-12-18T19:33:43.673Z,0.91
2022-12-18T19:36:14.232Z,0.90
2022-12-18T19:38:45.435Z,0.98
2022-12-18T19:41:14.707Z,0.92
2022-12-18T19:43:42.422Z,0.98
2022-12-18T19:46:12.156Z,1.03
2022-12-18T19:48:39.345Z,1.00
2022-12-18T19:51:08.787Z,0.98
2022-12-18T19:53:59.943Z,0.88
2022-12-18T19:56:30.685Z,1.03
2022-12-18T19:58:57.749Z,1.02
2022-12-18T20:01:27.356Z,1.00
2022-12-18T20:03:55.955Z,1.01
2022-12-18T20:06:27.045Z,1.00
2022-12-18T20:09:00.415Z,0.98
2022-12-18T20:11:31.512Z,0.94
2022-12-18T20:14:01.985Z,0.85
2022-12-18T20:16:29.728Z,0.91
2022-12-18T20:18:57.941Z,0.87
2022-12-18T20:21:28.295Z,0.93
2022-12-18T20:24:00.218Z,0.90
2022-12-18T20:26:27.734Z,0.88
2022-12-18T20:28:58.008Z,0.94
2022-12-18T20:31:27.263Z,0.92
2022-12-18T20:34:00.210Z,0.93
2022-12-18T20:36:29.524Z,0.90
2022-12-18T20:39:02.793Z,0.87
2022-12-18T20:41:37.859Z,0.80
2022-12-18T20:44:08.520Z,0.85
2022-12-18T20:46:49.931Z,0.84
2022-12-18T20:49:16.929Z,0.84
2022-12-18T20:51:44.153Z,0.84
2022-12-18T20:54:12.536Z,0.73
2022-12-18T20:56:39.780Z,0.59
2022-12-18T20:59:07.277Z,0.75
2022-12-18T21:01:34.745Z,0.63
2022-12-18T21:04:03.208Z,0.64
2022-12-18T21:06:33.164Z,0.68
2022-12-18T21:09:02.577Z,0.67
2022-12-18T21:11:54.596Z,0.66
2022-12-18T21:14:24.799Z,0.62
2022-12-18T21:16:56.081Z,0.60
2022-12-18T21:19:25.571Z,0.58
2022-12-18T21:21:53.665Z,0.60
2022-12-18T21:24:20.573Z,0.57
2022-12-18T21:26:49.643Z,0.62
2022-12-18T21:29:19.467Z,0.53
2022-12-18T21:31:53.215Z,0.49
2022-12-18T21:34:22.653Z,0.46
2022-12-18T21:36:49.919Z,0.33
2022-12-18T21:39:20.184Z,0.46
2022-12-18T21:42:09.978Z,0.48
2022-12-18T21:44:41.727Z,0.44
2022-12-18T21:47:22.290Z,0.43
2022-12-18T21:49:50.842Z,0.35
2022-12-18T21:52:18.109Z,0.34
2022-12-18T21:54:47.831Z,0.33
2022-12-18T21:57:19.693Z,0.38
2022-12-18T21:59:46.711Z,0.36
2022-12-18T22:02:21.198Z,0.34
2022-12-18T22:04:48.848Z,0.34
2022-12-18T22:07:19.172Z,0.31
2022-12-18T22:09:51.618Z,0.31
2022-12-18T22:12:35.448Z,0.29
2022-12-18T22:15:04.446Z,0.16
2022-12-18T22:17:31.883Z,0.17
2022-12-18T22:19:58.756Z,0.15
2022-12-18T22:22:25.950Z,0.06
2022-12-18T22:24:52.894Z,-0.05
2022-12-18T22:27:27.527Z,-0.12
2022-12-18T22:30:06.529Z,-0.17
2022-12-18T22:32:35.151Z,-0.23
2022-12-18T22:35:09.156Z,-0.23
2022-12-18T22:37:37.108Z,-0.15
2022-12-18T22:40:05.282Z,-0.07
2022-12-18T22:42:34.772Z,-0.02
2022-12-18T22:45:01.803Z,-0.05
2022-12-18T22:47:31.176Z,-0.04
2022-12-18T22:49:58.178Z,-0.09
2022-12-18T22:52:25.662Z,-0.10
2022-12-18T22:54:54.180Z,-0.15
2022-12-18T22:57:22.685Z,-0.19
2022-12-18T22:59:51.394Z,-0.23
2022-12-18T23:02:22.321Z,-0.24
2022-12-18T23:04:49.342Z,-0.21
2022-12-18T23:07:16.694Z,-0.24
2022-12-18T23:09:44.246Z,-0.25
2022-12-18T23:12:14.324Z,-0.28
2022-12-18T23:14:43.430Z,-0.35
2022-12-18T23:17:13.529Z,-0.39
2022-12-18T23:19:45.452Z,-0.38
2022-12-18T23:22:19.828Z,-0.38
2022-12-18T23:24:47.069Z,-0.40
2022-12-18T23:27:14.370Z,-0.47
2022-12-18T23:29:41.297Z,-0.50
2022-12-18T23:32:08.637Z,-0.52
2022-12-18T23:34:37.395Z,-0.57
2022-12-18T23:37:07.165Z,-0.55
2022-12-18T23:39:37.231Z,-0.47
2022-12-18T23:42:09.871Z,-0.45
2022-12-18T23:44:43.456Z,-0.46
2022-12-18T23:47:12.149Z,-0.43
2022-12-18T23:49:40.542Z,-0.32
2022-12-18T23:52:10.729Z,-0.24
2022-12-18T23:54:39.768Z,-0.16
2022-12-18T23:57:07.002Z,-0.11
2022-12-18T23:59:38.840Z,-0.05
